sensor_id;sensor_type;location;lat;lon;timestamp;P1;durP1;ratioP1;P2;durP2;ratioP2
84315;SDS011;74496;52.236;5.164;2024-03-08T00:00:17;27.10;;;17.20;;
84315;SDS011;74496;52.236;5.164;2024-03-08T00:02:44;31.33;;;17.70;;
84315;SDS011;74496;52.236;5.164;2024-03-08T00:05:12;31.27;;;17.90;;
84315;SDS011;74496;52.236;5.164;2024-03-08T00:07:40;30.85;;;18.20;;
84315;SDS011;74496;52.236;5.164;2024-03-08T00:10:11;31.38;;;16.95;;
84315;SDS011;74496;52.236;5.164;2024-03-08T00:12:40;30.30;;;17.23;;
84315;SDS011;74496;52.236;5.164;2024-03-08T00:15:08;33.60;;;17.40;;
84315;SDS011;74496;52.236;5.164;2024-03-08T00:17:36;31.85;;;17.85;;
84315;SDS011;74496;52.236;5.164;2024-03-08T00:20:03;33.50;;;17.00;;
84315;SDS011;74496;52.236;5.164;2024-03-08T00:22:33;31.30;;;16.83;;
84315;SDS011;74496;52.236;5.164;2024-03-08T00:25:01;33.27;;;18.30;;
84315;SDS011;74496;52.236;5.164;2024-03-08T00:27:28;28.65;;;17.55;;
84315;SDS011;74496;52.236;5.164;2024-03-08T00:29:57;31.30;;;16.92;;
84315;SDS011;74496;52.236;5.164;2024-03-08T00:32:24;28.30;;;16.25;;
84315;SDS011;74496;52.236;5.164;2024-03-08T00:34:50;27.63;;;17.23;;
84315;SDS011;74496;52.236;5.164;2024-03-08T00:37:18;28.70;;;16.10;;
84315;SDS011;74496;52.236;5.164;2024-03-08T00:39:44;28.70;;;16.58;;
84315;SDS011;74496;52.236;5.164;2024-03-08T00:42:11;32.92;;;18.17;;
84315;SDS011;74496;52.236;5.164;2024-03-08T00:44:38;32.97;;;17.60;;
84315;SDS011;74496;52.236;5.164;2024-03-08T00:47:07;27.33;;;16.70;;
84315;SDS011;74496;52.236;5.164;2024-03-08T00:49:34;29.73;;;16.07;;
84315;SDS011;74496;52.236;5.164;2024-03-08T00:52:01;31.52;;;17.77;;
84315;SDS011;74496;52.236;5.164;2024-03-08T00:54:28;26.33;;;16.38;;
84315;SDS011;74496;52.236;5.164;2024-03-08T00:56:55;32.22;;;17.38;;
84315;SDS011;74496;52.236;5.164;2024-03-08T00:59:23;29.75;;;16.88;;
84315;SDS011;74496;52.236;5.164;2024-03-08T01:01:50;28.23;;;16.67;;
84315;SDS011;74496;52.236;5.164;2024-03-08T01:04:18;28.08;;;17.17;;
84315;SDS011;74496;52.236;5.164;2024-03-08T01:06:45;30.60;;;16.85;;
84315;SDS011;74496;52.236;5.164;2024-03-08T01:09:12;25.73;;;16.15;;
84315;SDS011;74496;52.236;5.164;2024-03-08T01:11:39;27.25;;;16.67;;
84315;SDS011;74496;52.236;5.164;2024-03-08T01:14:07;26.50;;;16.53;;
84315;SDS011;74496;52.236;5.164;2024-03-08T01:16:34;29.63;;;17.15;;
84315;SDS011;74496;52.236;5.164;2024-03-08T01:19:01;27.17;;;17.05;;
84315;SDS011;74496;52.236;5.164;2024-03-08T01:21:29;26.42;;;17.20;;
84315;SDS011;74496;52.236;5.164;2024-03-08T01:23:56;28.13;;;17.02;;
84315;SDS011;74496;52.236;5.164;2024-03-08T01:26:23;26.47;;;16.27;;
84315;SDS011;74496;52.236;5.164;2024-03-08T01:28:50;31.20;;;16.77;;
84315;SDS011;74496;52.236;5.164;2024-03-08T01:31:16;25.63;;;16.88;;
84315;SDS011;74496;52.236;5.164;2024-03-08T01:33:43;27.27;;;16.58;;
84315;SDS011;74496;52.236;5.164;2024-03-08T01:36:10;25.75;;;16.63;;
84315;SDS011;74496;52.236;5.164;2024-03-08T01:38:42;29.10;;;17.47;;
84315;SDS011;74496;52.236;5.164;2024-03-08T01:41:09;28.20;;;15.90;;
84315;SDS011;74496;52.236;5.164;2024-03-08T01:43:35;29.05;;;17.27;;
84315;SDS011;74496;52.236;5.164;2024-03-08T01:46:02;26.08;;;16.88;;
84315;SDS011;74496;52.236;5.164;2024-03-08T01:48:29;28.13;;;17.20;;
84315;SDS011;74496;52.236;5.164;2024-03-08T01:50:56;28.00;;;16.83;;
84315;SDS011;74496;52.236;5.164;2024-03-08T01:53:24;29.58;;;16.80;;
84315;SDS011;74496;52.236;5.164;2024-03-08T01:55:56;31.38;;;17.23;;
84315;SDS011;74496;52.236;5.164;2024-03-08T01:58:24;31.77;;;17.60;;
84315;SDS011;74496;52.236;5.164;2024-03-08T02:00:53;26.60;;;16.80;;
84315;SDS011;74496;52.236;5.164;2024-03-08T02:03:20;25.63;;;16.50;;
84315;SDS011;74496;52.236;5.164;2024-03-08T02:05:47;24.23;;;16.95;;
84315;SDS011;74496;52.236;5.164;2024-03-08T02:08:16;29.40;;;17.58;;
84315;SDS011;74496;52.236;5.164;2024-03-08T02:10:44;28.42;;;17.83;;
84315;SDS011;74496;52.236;5.164;2024-03-08T02:13:12;26.15;;;16.63;;
84315;SDS011;74496;52.236;5.164;2024-03-08T02:15:52;30.90;;;17.63;;
84315;SDS011;74496;52.236;5.164;2024-03-08T02:18:20;25.60;;;16.63;;
84315;SDS011;74496;52.236;5.164;2024-03-08T02:20:49;26.35;;;16.67;;
84315;SDS011;74496;52.236;5.164;2024-03-08T02:23:15;28.83;;;16.88;;
84315;SDS011;74496;52.236;5.164;2024-03-08T02:25:43;27.70;;;17.77;;
84315;SDS011;74496;52.236;5.164;2024-03-08T02:28:09;28.20;;;17.27;;
84315;SDS011;74496;52.236;5.164;2024-03-08T02:30:37;28.58;;;16.45;;
84315;SDS011;74496;52.236;5.164;2024-03-08T02:33:04;25.25;;;17.63;;
84315;SDS011;74496;52.236;5.164;2024-03-08T02:35:31;25.58;;;16.63;;
84315;SDS011;74496;52.236;5.164;2024-03-08T02:37:59;27.23;;;16.52;;
84315;SDS011;74496;52.236;5.164;2024-03-08T02:40:26;25.37;;;17.10;;
84315;SDS011;74496;52.236;5.164;2024-03-08T02:42:52;26.52;;;16.27;;
84315;SDS011;74496;52.236;5.164;2024-03-08T02:45:19;30.98;;;17.83;;
84315;SDS011;74496;52.236;5.164;2024-03-08T02:47:46;30.73;;;17.10;;
84315;SDS011;74496;52.236;5.164;2024-03-08T02:50:14;22.85;;;16.42;;
84315;SDS011;74496;52.236;5.164;2024-03-08T02:52:41;26.63;;;17.07;;
84315;SDS011;74496;52.236;5.164;2024-03-08T02:55:09;30.73;;;18.13;;
84315;SDS011;74496;52.236;5.164;2024-03-08T02:57:40;26.17;;;16.80;;
84315;SDS011;74496;52.236;5.164;2024-03-08T03:00:07;27.83;;;17.60;;
84315;SDS011;74496;52.236;5.164;2024-03-08T03:02:35;29.75;;;17.38;;
84315;SDS011;74496;52.236;5.164;2024-03-08T03:05:02;30.23;;;16.53;;
84315;SDS011;74496;52.236;5.164;2024-03-08T03:07:31;28.00;;;16.95;;
84315;SDS011;74496;52.236;5.164;2024-03-08T03:09:58;29.73;;;17.73;;
84315;SDS011;74496;52.236;5.164;2024-03-08T03:12:27;26.77;;;17.48;;
84315;SDS011;74496;52.236;5.164;2024-03-08T03:14:53;29.08;;;17.05;;
84315;SDS011;74496;52.236;5.164;2024-03-08T03:17:21;27.70;;;17.53;;
84315;SDS011;74496;52.236;5.164;2024-03-08T03:19:48;25.50;;;16.60;;
84315;SDS011;74496;52.236;5.164;2024-03-08T03:22:15;33.22;;;17.00;;
84315;SDS011;74496;52.236;5.164;2024-03-08T03:24:42;29.10;;;17.95;;
84315;SDS011;74496;52.236;5.164;2024-03-08T03:27:08;25.83;;;17.33;;
84315;SDS011;74496;52.236;5.164;2024-03-08T03:29:38;31.20;;;17.37;;
84315;SDS011;74496;52.236;5.164;2024-03-08T03:32:05;29.15;;;17.20;;
84315;SDS011;74496;52.236;5.164;2024-03-08T03:34:33;32.80;;;17.15;;
84315;SDS011;74496;52.236;5.164;2024-03-08T03:37:01;24.52;;;16.17;;
84315;SDS011;74496;52.236;5.164;2024-03-08T03:39:28;27.60;;;17.58;;
84315;SDS011;74496;52.236;5.164;2024-03-08T03:41:57;28.23;;;16.70;;
84315;SDS011;74496;52.236;5.164;2024-03-08T03:44:23;24.23;;;16.75;;
84315;SDS011;74496;52.236;5.164;2024-03-08T03:46:52;28.75;;;17.00;;
84315;SDS011;74496;52.236;5.164;2024-03-08T03:49:18;30.58;;;17.98;;
84315;SDS011;74496;52.236;5.164;2024-03-08T03:51:45;27.38;;;17.42;;
84315;SDS011;74496;52.236;5.164;2024-03-08T03:54:12;25.63;;;17.93;;
84315;SDS011;74496;52.236;5.164;2024-03-08T03:56:39;25.20;;;16.75;;
84315;SDS011;74496;52.236;5.164;2024-03-08T03:59:06;27.15;;;17.80;;
84315;SDS011;74496;52.236;5.164;2024-03-08T04:01:33;32.53;;;18.42;;
84315;SDS011;74496;52.236;5.164;2024-03-08T04:04:01;28.88;;;17.20;;
84315;SDS011;74496;52.236;5.164;2024-03-08T04:06:28;32.60;;;18.33;;
84315;SDS011;74496;52.236;5.164;2024-03-08T04:08:55;30.45;;;18.15;;
84315;SDS011;74496;52.236;5.164;2024-03-08T04:11:22;29.73;;;17.73;;
84315;SDS011;74496;52.236;5.164;2024-03-08T04:13:48;29.23;;;17.55;;
84315;SDS011;74496;52.236;5.164;2024-03-08T04:16:15;26.48;;;17.48;;
84315;SDS011;74496;52.236;5.164;2024-03-08T04:18:44;25.97;;;17.43;;
84315;SDS011;74496;52.236;5.164;2024-03-08T04:21:12;24.63;;;16.92;;
84315;SDS011;74496;52.236;5.164;2024-03-08T04:23:39;27.27;;;17.80;;
84315;SDS011;74496;52.236;5.164;2024-03-08T04:26:05;23.27;;;17.33;;
84315;SDS011;74496;52.236;5.164;2024-03-08T04:28:34;25.98;;;17.13;;
84315;SDS011;74496;52.236;5.164;2024-03-08T04:31:02;27.67;;;17.60;;
84315;SDS011;74496;52.236;5.164;2024-03-08T04:33:29;27.52;;;17.63;;
84315;SDS011;74496;52.236;5.164;2024-03-08T04:35:56;24.85;;;17.27;;
84315;SDS011;74496;52.236;5.164;2024-03-08T04:38:24;25.05;;;17.77;;
84315;SDS011;74496;52.236;5.164;2024-03-08T04:40:51;26.80;;;17.60;;
84315;SDS011;74496;52.236;5.164;2024-03-08T04:43:18;26.13;;;16.73;;
84315;SDS011;74496;52.236;5.164;2024-03-08T04:45:46;29.45;;;18.60;;
84315;SDS011;74496;52.236;5.164;2024-03-08T04:48:13;25.20;;;18.38;;
84315;SDS011;74496;52.236;5.164;2024-03-08T04:50:40;29.85;;;18.35;;
84315;SDS011;74496;52.236;5.164;2024-03-08T04:53:07;25.58;;;17.40;;
84315;SDS011;74496;52.236;5.164;2024-03-08T04:55:35;34.17;;;18.97;;
84315;SDS011;74496;52.236;5.164;2024-03-08T04:58:03;27.30;;;18.05;;
84315;SDS011;74496;52.236;5.164;2024-03-08T05:00:31;24.02;;;16.50;;
84315;SDS011;74496;52.236;5.164;2024-03-08T05:02:58;29.42;;;18.15;;
84315;SDS011;74496;52.236;5.164;2024-03-08T05:05:24;29.30;;;18.40;;
84315;SDS011;74496;52.236;5.164;2024-03-08T05:07:53;31.27;;;18.37;;
84315;SDS011;74496;52.236;5.164;2024-03-08T05:10:20;25.80;;;17.08;;
84315;SDS011;74496;52.236;5.164;2024-03-08T05:12:48;27.23;;;18.67;;
84315;SDS011;74496;52.236;5.164;2024-03-08T05:15:15;26.15;;;17.38;;
84315;SDS011;74496;52.236;5.164;2024-03-08T05:17:42;29.23;;;17.95;;
84315;SDS011;74496;52.236;5.164;2024-03-08T05:20:09;26.03;;;17.53;;
84315;SDS011;74496;52.236;5.164;2024-03-08T05:22:38;25.27;;;16.80;;
84315;SDS011;74496;52.236;5.164;2024-03-08T05:25:05;25.02;;;17.50;;
84315;SDS011;74496;52.236;5.164;2024-03-08T05:27:35;35.53;;;18.70;;
84315;SDS011;74496;52.236;5.164;2024-03-08T05:30:04;25.33;;;18.00;;
84315;SDS011;74496;52.236;5.164;2024-03-08T05:32:31;29.57;;;18.30;;
84315;SDS011;74496;52.236;5.164;2024-03-08T05:34:58;24.45;;;16.92;;
84315;SDS011;74496;52.236;5.164;2024-03-08T05:37:32;22.50;;;17.85;;
84315;SDS011;74496;52.236;5.164;2024-03-08T05:39:59;25.83;;;17.75;;
84315;SDS011;74496;52.236;5.164;2024-03-08T05:42:25;26.48;;;18.80;;
84315;SDS011;74496;52.236;5.164;2024-03-08T05:44:53;24.90;;;17.63;;
84315;SDS011;74496;52.236;5.164;2024-03-08T05:47:23;27.63;;;18.10;;
84315;SDS011;74496;52.236;5.164;2024-03-08T05:49:50;27.40;;;18.20;;
84315;SDS011;74496;52.236;5.164;2024-03-08T05:52:18;27.90;;;18.17;;
84315;SDS011;74496;52.236;5.164;2024-03-08T05:54:45;25.38;;;17.48;;
84315;SDS011;74496;52.236;5.164;2024-03-08T05:57:12;26.50;;;18.90;;
84315;SDS011;74496;52.236;5.164;2024-03-08T05:59:39;29.42;;;19.50;;
84315;SDS011;74496;52.236;5.164;2024-03-08T06:02:06;30.25;;;18.95;;
84315;SDS011;74496;52.236;5.164;2024-03-08T06:04:34;28.80;;;19.40;;
84315;SDS011;74496;52.236;5.164;2024-03-08T06:07:01;32.22;;;18.33;;
84315;SDS011;74496;52.236;5.164;2024-03-08T06:09:28;30.17;;;19.40;;
84315;SDS011;74496;52.236;5.164;2024-03-08T06:11:55;25.10;;;18.02;;
84315;SDS011;74496;52.236;5.164;2024-03-08T06:14:22;26.40;;;18.33;;
84315;SDS011;74496;52.236;5.164;2024-03-08T06:16:49;33.33;;;18.65;;
84315;SDS011;74496;52.236;5.164;2024-03-08T06:19:16;26.33;;;18.55;;
84315;SDS011;74496;52.236;5.164;2024-03-08T06:21:44;25.73;;;18.50;;
84315;SDS011;74496;52.236;5.164;2024-03-08T06:24:11;32.45;;;18.58;;
84315;SDS011;74496;52.236;5.164;2024-03-08T06:26:37;28.83;;;18.42;;
84315;SDS011;74496;52.236;5.164;2024-03-08T06:29:04;27.52;;;18.23;;
84315;SDS011;74496;52.236;5.164;2024-03-08T06:31:32;27.77;;;18.30;;
84315;SDS011;74496;52.236;5.164;2024-03-08T06:33:59;26.00;;;17.43;;
84315;SDS011;74496;52.236;5.164;2024-03-08T06:36:25;25.30;;;17.98;;
84315;SDS011;74496;52.236;5.164;2024-03-08T06:38:54;26.48;;;17.88;;
84315;SDS011;74496;52.236;5.164;2024-03-08T06:41:22;27.02;;;17.92;;
84315;SDS011;74496;52.236;5.164;2024-03-08T06:43:49;27.00;;;18.42;;
84315;SDS011;74496;52.236;5.164;2024-03-08T06:46:17;32.53;;;17.97;;
84315;SDS011;74496;52.236;5.164;2024-03-08T06:48:45;25.73;;;18.75;;
84315;SDS011;74496;52.236;5.164;2024-03-08T06:51:12;25.08;;;18.63;;
84315;SDS011;74496;52.236;5.164;2024-03-08T06:53:39;25.35;;;18.15;;
84315;SDS011;74496;52.236;5.164;2024-03-08T06:56:07;25.67;;;18.85;;
84315;SDS011;74496;52.236;5.164;2024-03-08T06:58:34;30.00;;;18.50;;
84315;SDS011;74496;52.236;5.164;2024-03-08T07:01:01;28.55;;;18.58;;
84315;SDS011;74496;52.236;5.164;2024-03-08T07:03:29;27.13;;;19.23;;
84315;SDS011;74496;52.236;5.164;2024-03-08T07:05:57;31.30;;;19.85;;
84315;SDS011;74496;52.236;5.164;2024-03-08T07:08:24;26.58;;;17.85;;
84315;SDS011;74496;52.236;5.164;2024-03-08T07:10:52;25.90;;;18.10;;
84315;SDS011;74496;52.236;5.164;2024-03-08T07:13:20;25.00;;;17.80;;
84315;SDS011;74496;52.236;5.164;2024-03-08T07:15:47;26.52;;;18.70;;
84315;SDS011;74496;52.236;5.164;2024-03-08T07:18:14;27.95;;;19.60;;
84315;SDS011;74496;52.236;5.164;2024-03-08T07:20:41;28.67;;;18.95;;
84315;SDS011;74496;52.236;5.164;2024-03-08T07:23:08;24.00;;;18.80;;
84315;SDS011;74496;52.236;5.164;2024-03-08T07:25:35;28.35;;;18.65;;
84315;SDS011;74496;52.236;5.164;2024-03-08T07:28:04;25.92;;;18.75;;
84315;SDS011;74496;52.236;5.164;2024-03-08T07:30:33;30.63;;;19.35;;
84315;SDS011;74496;52.236;5.164;2024-03-08T07:33:19;27.48;;;18.40;;
84315;SDS011;74496;52.236;5.164;2024-03-08T07:35:48;27.83;;;19.47;;
84315;SDS011;74496;52.236;5.164;2024-03-08T07:38:15;29.70;;;19.10;;
84315;SDS011;74496;52.236;5.164;2024-03-08T07:40:42;30.42;;;19.52;;
84315;SDS011;74496;52.236;5.164;2024-03-08T07:43:10;31.42;;;18.88;;
84315;SDS011;74496;52.236;5.164;2024-03-08T07:45:39;29.25;;;20.17;;
84315;SDS011;74496;52.236;5.164;2024-03-08T07:48:06;30.40;;;19.13;;
84315;SDS011;74496;52.236;5.164;2024-03-08T07:50:35;33.65;;;20.33;;
84315;SDS011;74496;52.236;5.164;2024-03-08T07:53:02;28.13;;;19.05;;
84315;SDS011;74496;52.236;5.164;2024-03-08T07:55:31;29.60;;;19.52;;
84315;SDS011;74496;52.236;5.164;2024-03-08T07:57:58;30.40;;;20.83;;
84315;SDS011;74496;52.236;5.164;2024-03-08T08:00:25;24.83;;;19.37;;
84315;SDS011;74496;52.236;5.164;2024-03-08T08:02:54;29.45;;;19.95;;
84315;SDS011;74496;52.236;5.164;2024-03-08T08:05:21;27.38;;;18.33;;
84315;SDS011;74496;52.236;5.164;2024-03-08T08:07:47;30.63;;;19.55;;
84315;SDS011;74496;52.236;5.164;2024-03-08T08:10:15;28.08;;;19.50;;
84315;SDS011;74496;52.236;5.164;2024-03-08T08:12:44;27.87;;;20.57;;
84315;SDS011;74496;52.236;5.164;2024-03-08T08:15:12;29.90;;;20.33;;
84315;SDS011;74496;52.236;5.164;2024-03-08T08:17:40;33.45;;;19.92;;
84315;SDS011;74496;52.236;5.164;2024-03-08T08:20:09;32.40;;;20.02;;
84315;SDS011;74496;52.236;5.164;2024-03-08T08:22:37;29.60;;;19.02;;
84315;SDS011;74496;52.236;5.164;2024-03-08T08:25:05;27.07;;;20.20;;
84315;SDS011;74496;52.236;5.164;2024-03-08T08:27:32;29.63;;;19.38;;
84315;SDS011;74496;52.236;5.164;2024-03-08T08:29:58;33.80;;;20.10;;
84315;SDS011;74496;52.236;5.164;2024-03-08T08:32:26;30.40;;;21.42;;
84315;SDS011;74496;52.236;5.164;2024-03-08T08:34:53;30.48;;;20.17;;
84315;SDS011;74496;52.236;5.164;2024-03-08T08:37:21;28.23;;;19.73;;
84315;SDS011;74496;52.236;5.164;2024-03-08T08:39:48;33.75;;;19.60;;
84315;SDS011;74496;52.236;5.164;2024-03-08T08:42:16;29.50;;;19.85;;
84315;SDS011;74496;52.236;5.164;2024-03-08T08:44:43;25.70;;;19.30;;
84315;SDS011;74496;52.236;5.164;2024-03-08T08:47:10;27.77;;;19.52;;
84315;SDS011;74496;52.236;5.164;2024-03-08T08:49:37;26.30;;;18.50;;
84315;SDS011;74496;52.236;5.164;2024-03-08T08:52:03;33.13;;;20.25;;
84315;SDS011;74496;52.236;5.164;2024-03-08T08:54:32;28.88;;;19.55;;
84315;SDS011;74496;52.236;5.164;2024-03-08T08:56:58;23.88;;;19.27;;
84315;SDS011;74496;52.236;5.164;2024-03-08T08:59:26;30.65;;;20.73;;
84315;SDS011;74496;52.236;5.164;2024-03-08T09:01:52;25.97;;;18.63;;
84315;SDS011;74496;52.236;5.164;2024-03-08T09:04:19;26.50;;;18.90;;
84315;SDS011;74496;52.236;5.164;2024-03-08T09:06:48;32.95;;;20.83;;
84315;SDS011;74496;52.236;5.164;2024-03-08T09:09:15;26.63;;;19.05;;
84315;SDS011;74496;52.236;5.164;2024-03-08T09:11:43;26.05;;;18.92;;
84315;SDS011;74496;52.236;5.164;2024-03-08T09:14:11;25.63;;;18.63;;
84315;SDS011;74496;52.236;5.164;2024-03-08T09:16:38;28.55;;;19.65;;
84315;SDS011;74496;52.236;5.164;2024-03-08T09:19:05;26.30;;;19.85;;
84315;SDS011;74496;52.236;5.164;2024-03-08T09:21:32;27.30;;;19.27;;
84315;SDS011;74496;52.236;5.164;2024-03-08T09:24:00;30.67;;;20.00;;
84315;SDS011;74496;52.236;5.164;2024-03-08T09:26:26;26.23;;;18.20;;
84315;SDS011;74496;52.236;5.164;2024-03-08T09:28:54;28.17;;;18.73;;
84315;SDS011;74496;52.236;5.164;2024-03-08T09:31:22;28.50;;;19.80;;
84315;SDS011;74496;52.236;5.164;2024-03-08T09:33:49;26.88;;;19.23;;
84315;SDS011;74496;52.236;5.164;2024-03-08T09:36:17;26.13;;;19.77;;
84315;SDS011;74496;52.236;5.164;2024-03-08T09:38:44;31.30;;;19.20;;
84315;SDS011;74496;52.236;5.164;2024-03-08T09:41:10;25.42;;;18.08;;
84315;SDS011;74496;52.236;5.164;2024-03-08T09:43:38;29.20;;;18.60;;
84315;SDS011;74496;52.236;5.164;2024-03-08T09:46:06;27.23;;;18.98;;
84315;SDS011;74496;52.236;5.164;2024-03-08T09:48:34;29.83;;;18.55;;
84315;SDS011;74496;52.236;5.164;2024-03-08T09:51:01;25.93;;;19.70;;
84315;SDS011;74496;52.236;5.164;2024-03-08T09:53:29;31.90;;;19.10;;
84315;SDS011;74496;52.236;5.164;2024-03-08T09:55:56;30.70;;;20.63;;
84315;SDS011;74496;52.236;5.164;2024-03-08T09:58:24;25.45;;;18.73;;
84315;SDS011;74496;52.236;5.164;2024-03-08T10:01:20;31.15;;;19.50;;
84315;SDS011;74496;52.236;5.164;2024-03-08T10:03:47;26.67;;;18.30;;
84315;SDS011;74496;52.236;5.164;2024-03-08T10:06:15;26.48;;;18.15;;
84315;SDS011;74496;52.236;5.164;2024-03-08T10:08:42;23.83;;;19.13;;
84315;SDS011;74496;52.236;5.164;2024-03-08T10:11:09;29.50;;;20.17;;
84315;SDS011;74496;52.236;5.164;2024-03-08T10:13:36;26.08;;;18.67;;
84315;SDS011;74496;52.236;5.164;2024-03-08T10:16:05;27.37;;;18.00;;
84315;SDS011;74496;52.236;5.164;2024-03-08T10:18:35;24.75;;;17.88;;
84315;SDS011;74496;52.236;5.164;2024-03-08T10:21:02;29.00;;;19.15;;
84315;SDS011;74496;52.236;5.164;2024-03-08T10:23:35;26.50;;;19.05;;
84315;SDS011;74496;52.236;5.164;2024-03-08T10:26:09;23.17;;;17.67;;
84315;SDS011;74496;52.236;5.164;2024-03-08T10:28:40;30.30;;;19.20;;
84315;SDS011;74496;52.236;5.164;2024-03-08T10:31:08;29.58;;;16.63;;
84315;SDS011;74496;52.236;5.164;2024-03-08T10:33:36;24.50;;;17.95;;
84315;SDS011;74496;52.236;5.164;2024-03-08T10:36:05;22.05;;;18.08;;
84315;SDS011;74496;52.236;5.164;2024-03-08T10:38:34;22.45;;;17.33;;
84315;SDS011;74496;52.236;5.164;2024-03-08T10:41:02;23.10;;;18.13;;
84315;SDS011;74496;52.236;5.164;2024-03-08T10:43:32;23.75;;;17.55;;
84315;SDS011;74496;52.236;5.164;2024-03-08T10:46:11;22.15;;;16.63;;
84315;SDS011;74496;52.236;5.164;2024-03-08T10:48:49;21.40;;;16.42;;
84315;SDS011;74496;52.236;5.164;2024-03-08T10:51:18;22.35;;;16.70;;
84315;SDS011;74496;52.236;5.164;2024-03-08T10:53:45;27.67;;;17.20;;
84315;SDS011;74496;52.236;5.164;2024-03-08T10:56:16;22.42;;;17.33;;
84315;SDS011;74496;52.236;5.164;2024-03-08T10:58:43;20.45;;;16.13;;
84315;SDS011;74496;52.236;5.164;2024-03-08T11:01:10;22.67;;;16.15;;
84315;SDS011;74496;52.236;5.164;2024-03-08T11:03:44;19.00;;;14.95;;
84315;SDS011;74496;52.236;5.164;2024-03-08T11:06:15;22.10;;;15.60;;
84315;SDS011;74496;52.236;5.164;2024-03-08T11:08:43;21.67;;;16.33;;
84315;SDS011;74496;52.236;5.164;2024-03-08T11:11:26;22.10;;;16.02;;
84315;SDS011;74496;52.236;5.164;2024-03-08T11:13:55;18.38;;;15.13;;
84315;SDS011;74496;52.236;5.164;2024-03-08T11:16:36;25.85;;;15.25;;
84315;SDS011;74496;52.236;5.164;2024-03-08T11:19:06;21.07;;;14.53;;
84315;SDS011;74496;52.236;5.164;2024-03-08T11:21:58;17.85;;;14.13;;
84315;SDS011;74496;52.236;5.164;2024-03-08T11:24:28;21.25;;;15.27;;
84315;SDS011;74496;52.236;5.164;2024-03-08T11:27:05;19.95;;;15.10;;
84315;SDS011;74496;52.236;5.164;2024-03-08T11:29:32;19.65;;;15.20;;
84315;SDS011;74496;52.236;5.164;2024-03-08T11:32:03;21.63;;;14.73;;
84315;SDS011;74496;52.236;5.164;2024-03-08T11:34:31;19.90;;;14.13;;
84315;SDS011;74496;52.236;5.164;2024-03-08T11:37:00;16.58;;;13.43;;
84315;SDS011;74496;52.236;5.164;2024-03-08T11:39:30;17.08;;;13.60;;
84315;SDS011;74496;52.236;5.164;2024-03-08T11:41:58;19.95;;;14.40;;
84315;SDS011;74496;52.236;5.164;2024-03-08T11:44:26;19.93;;;13.63;;
84315;SDS011;74496;52.236;5.164;2024-03-08T11:46:53;16.08;;;13.40;;
84315;SDS011;74496;52.236;5.164;2024-03-08T11:49:20;17.13;;;13.52;;
84315;SDS011;74496;52.236;5.164;2024-03-08T11:51:50;17.42;;;12.60;;
84315;SDS011;74496;52.236;5.164;2024-03-08T11:54:20;14.18;;;12.63;;
84315;SDS011;74496;52.236;5.164;2024-03-08T11:56:46;19.33;;;13.60;;
84315;SDS011;74496;52.236;5.164;2024-03-08T11:59:13;19.60;;;13.38;;
84315;SDS011;74496;52.236;5.164;2024-03-08T12:01:40;16.08;;;12.73;;
84315;SDS011;74496;52.236;5.164;2024-03-08T12:04:11;18.00;;;12.95;;
84315;SDS011;74496;52.236;5.164;2024-03-08T12:06:39;15.68;;;13.32;;
84315;SDS011;74496;52.236;5.164;2024-03-08T12:09:09;15.63;;;12.30;;
84315;SDS011;74496;52.236;5.164;2024-03-08T12:11:39;25.20;;;12.95;;
84315;SDS011;74496;52.236;5.164;2024-03-08T12:14:07;14.02;;;11.82;;
84315;SDS011;74496;52.236;5.164;2024-03-08T12:16:33;20.42;;;12.70;;
84315;SDS011;74496;52.236;5.164;2024-03-08T12:19:02;14.02;;;11.65;;
84315;SDS011;74496;52.236;5.164;2024-03-08T12:21:31;15.23;;;12.30;;
84315;SDS011;74496;52.236;5.164;2024-03-08T12:24:03;20.42;;;12.93;;
84315;SDS011;74496;52.236;5.164;2024-03-08T12:26:35;13.40;;;11.20;;
84315;SDS011;74496;52.236;5.164;2024-03-08T12:29:16;17.60;;;11.82;;
84315;SDS011;74496;52.236;5.164;2024-03-08T12:31:45;14.48;;;11.57;;
84315;SDS011;74496;52.236;5.164;2024-03-08T12:34:12;13.47;;;11.50;;
84315;SDS011;74496;52.236;5.164;2024-03-08T12:36:43;16.00;;;12.45;;
84315;SDS011;74496;52.236;5.164;2024-03-08T12:39:13;14.18;;;11.80;;
84315;SDS011;74496;52.236;5.164;2024-03-08T12:41:41;13.18;;;11.68;;
84315;SDS011;74496;52.236;5.164;2024-03-08T12:44:08;23.75;;;11.80;;
84315;SDS011;74496;52.236;5.164;2024-03-08T12:46:38;15.87;;;10.93;;
84315;SDS011;74496;52.236;5.164;2024-03-08T12:49:09;14.60;;;10.88;;
84315;SDS011;74496;52.236;5.164;2024-03-08T12:51:37;13.40;;;11.95;;
84315;SDS011;74496;52.236;5.164;2024-03-08T12:54:04;25.02;;;11.45;;
84315;SDS011;74496;52.236;5.164;2024-03-08T12:56:32;13.90;;;11.45;;
84315;SDS011;74496;52.236;5.164;2024-03-08T12:59:00;18.00;;;12.43;;
84315;SDS011;74496;52.236;5.164;2024-03-08T13:01:28;16.52;;;12.45;;
84315;SDS011;74496;52.236;5.164;2024-03-08T13:03:56;14.13;;;11.73;;
84315;SDS011;74496;52.236;5.164;2024-03-08T13:06:23;19.15;;;12.30;;
84315;SDS011;74496;52.236;5.164;2024-03-08T13:08:50;14.00;;;11.02;;
84315;SDS011;74496;52.236;5.164;2024-03-08T13:11:19;14.10;;;12.07;;
84315;SDS011;74496;52.236;5.164;2024-03-08T13:13:46;13.18;;;11.60;;
84315;SDS011;74496;52.236;5.164;2024-03-08T13:16:13;15.82;;;11.68;;
84315;SDS011;74496;52.236;5.164;2024-03-08T13:18:42;13.68;;;12.25;;
84315;SDS011;74496;52.236;5.164;2024-03-08T13:21:12;16.08;;;11.57;;
84315;SDS011;74496;52.236;5.164;2024-03-08T13:23:40;15.87;;;12.60;;
84315;SDS011;74496;52.236;5.164;2024-03-08T13:26:11;15.50;;;11.48;;
84315;SDS011;74496;52.236;5.164;2024-03-08T13:28:41;13.73;;;12.23;;
84315;SDS011;74496;52.236;5.164;2024-03-08T13:31:08;17.10;;;11.30;;
84315;SDS011;74496;52.236;5.164;2024-03-08T13:33:35;16.60;;;12.30;;
84315;SDS011;74496;52.236;5.164;2024-03-08T13:36:04;21.37;;;12.03;;
84315;SDS011;74496;52.236;5.164;2024-03-08T13:38:41;14.27;;;11.75;;
84315;SDS011;74496;52.236;5.164;2024-03-08T13:41:09;13.95;;;12.38;;
84315;SDS011;74496;52.236;5.164;2024-03-08T13:43:36;14.25;;;11.95;;
84315;SDS011;74496;52.236;5.164;2024-03-08T13:46:05;18.52;;;12.32;;
84315;SDS011;74496;52.236;5.164;2024-03-08T13:48:33;16.30;;;12.70;;
84315;SDS011;74496;52.236;5.164;2024-03-08T13:51:00;16.58;;;12.60;;
84315;SDS011;74496;52.236;5.164;2024-03-08T13:53:26;13.30;;;11.90;;
84315;SDS011;74496;52.236;5.164;2024-03-08T13:55:55;13.35;;;11.70;;
84315;SDS011;74496;52.236;5.164;2024-03-08T13:58:21;18.63;;;13.48;;
84315;SDS011;74496;52.236;5.164;2024-03-08T14:00:49;14.60;;;12.67;;
84315;SDS011;74496;52.236;5.164;2024-03-08T14:03:19;18.70;;;13.68;;
84315;SDS011;74496;52.236;5.164;2024-03-08T14:05:46;16.13;;;13.27;;
84315;SDS011;74496;52.236;5.164;2024-03-08T14:08:13;19.25;;;13.15;;
84315;SDS011;74496;52.236;5.164;2024-03-08T14:10:42;21.33;;;13.85;;
84315;SDS011;74496;52.236;5.164;2024-03-08T14:13:13;16.43;;;12.67;;
84315;SDS011;74496;52.236;5.164;2024-03-08T14:15:41;18.80;;;13.60;;
84315;SDS011;74496;52.236;5.164;2024-03-08T14:18:09;14.80;;;13.10;;
84315;SDS011;74496;52.236;5.164;2024-03-08T14:20:38;24.23;;;14.02;;
84315;SDS011;74496;52.236;5.164;2024-03-08T14:23:05;17.48;;;12.07;;
84315;SDS011;74496;52.236;5.164;2024-03-08T14:25:32;15.70;;;13.10;;